Maldives Meteorological Service

TAFS

Station TAF
VRMM
VRMM 301700Z 3018/3124 28013KT 9999 SCT018TCU SCT100 TEMPO 3018/3024 6000 -TSRA SCT016CB=
VRMH
VRMH 301700Z 3018/3124 27010KT 9999 SCT018TCU SCT100 TEMPO 3018/3024 6000 -TSRA SCT016CB=
VRMK
VRMK 301700Z 3018/3118 21006KT 9999 SCT018TCU SCT100 TEMPO 3018/3024 4000 TSRA SCT016CB=
VRMT
VRMT 301700Z 3018/3118 19007KT 9999 SCT018TCU TEMPO 3019/3024 SCT017CB=
VRMG
VRMG 301700Z 3018/3124 17009KT 9000 SCT018TCU TEMPO 3019/3024 SCT017CB=